Time,TemperatureF,DewpointF,PressureIn,WindDirection,WindDirectionDegrees,WindSpeedMPH,WindSpeedGustMPH,Humidity,HourlyPrecipIn,Conditions,Clouds,dailyrainin,SoftwareType,DateUTC
2013-01-12 00:01:00,38.1,36.8,30.23,SSW,210,3.0,3.0,95,0.00,,,0.10,Wunderground v.1.15,2013-01-12 05:01:00,
2013-01-12 00:02:00,38.1,36.8,30.23,SW,223,3.0,3.0,95,0.00,,,0.10,Wunderground v.1.15,2013-01-12 05:02:00,
2013-01-12 00:03:00,38.1,36.8,30.22,SW,222,3.0,3.0,95,0.00,,,0.00,Wunderground v.1.15,2013-01-12 05:03:00,
2013-01-12 00:09:00,38.1,36.8,30.23,South,176,2.0,4.0,95,0.00,,,0.01,Wunderground v.1.15,2013-01-12 05:09:00,
2013-01-12 00:15:00,38.2,36.9,30.22,South,176,2.0,3.0,95,0.00,,,0.01,Wunderground v.1.15,2013-01-12 05:15:00,
2013-01-12 00:20:00,38.1,36.8,30.22,South,174,2.0,3.0,95,0.00,,,0.01,Wunderground v.1.15,2013-01-12 05:20:00,
2013-01-12 00:26:00,38.2,37.2,30.21,South,176,2.0,4.0,96,0.00,,,0.01,Wunderground v.1.15,2013-01-12 05:26:00,
2013-01-12 00:32:00,38.2,37.2,30.21,South,180,2.0,3.0,96,0.00,,,0.01,Wunderground v.1.15,2013-01-12 05:32:00,
2013-01-12 00:38:00,38.3,37.0,30.21,South,180,2.0,3.0,95,0.00,,,0.01,Wunderground v.1.15,2013-01-12 05:38:00,
2013-01-12 00:43:00,38.2,37.2,30.21,South,183,1.0,1.0,96,0.00,,,0.01,Wunderground v.1.15,2013-01-12 05:43:00,
2013-01-12 00:49:00,38.2,37.2,30.20,SSW,210,1.0,3.0,96,0.00,,,0.01,Wunderground v.1.15,2013-01-12 05:49:00,
2013-01-12 00:55:00,38.3,37.3,30.20,SW,231,2.0,4.0,96,0.00,,,0.01,Wunderground v.1.15,2013-01-12 05:55:00,
2013-01-12 01:01:00,38.3,37.3,30.20,SW,220,3.0,3.0,96,0.00,,,0.01,Wunderground v.1.15,2013-01-12 06:01:00,
2013-01-12 01:07:00,38.4,37.4,30.20,SW,224,3.0,6.0,96,0.00,,,0.01,Wunderground v.1.15,2013-01-12 06:07:00,
2013-01-12 01:13:00,38.4,37.4,30.19,SW,236,4.0,7.0,96,0.00,,,0.01,Wunderground v.1.15,2013-01-12 06:13:00,
2013-01-12 01:19:00,38.4,37.4,30.20,SW,216,4.0,7.0,96,0.00,,,0.01,Wunderground v.1.15,2013-01-12 06:19:00,
2013-01-12 01:25:00,38.5,37.5,30.19,SW,216,3.0,8.0,96,0.00,,,0.01,Wunderground v.1.15,2013-01-12 06:25:00,
2013-01-12 01:31:00,38.5,37.5,30.19,SSW,197,2.0,3.0,96,0.00,,,0.01,Wunderground v.1.15,2013-01-12 06:31:00,
2013-01-12 01:37:00,38.5,37.5,30.20,WSW,242,2.0,6.0,96,0.00,,,0.01,Wunderground v.1.15,2013-01-12 06:37:00,
2013-01-12 01:43:00,38.6,37.6,30.20,SW,235,2.0,3.0,96,0.00,,,0.01,Wunderground v.1.15,2013-01-12 06:43:00,
2013-01-12 01:48:00,38.6,37.6,30.20,SW,226,2.0,4.0,96,0.00,,,0.01,Wunderground v.1.15,2013-01-12 06:48:00,
2013-01-12 01:54:00,38.6,37.6,30.19,South,181,2.0,3.0,96,0.00,,,0.01,Wunderground v.1.15,2013-01-12 06:54:00,
2013-01-12 02:00:00,38.6,37.6,30.19,South,173,2.0,3.0,96,0.00,,,0.01,Wunderground v.1.15,2013-01-12 07:00:00,
2013-01-12 02:05:00,38.6,37.6,30.18,South,170,3.0,3.0,96,0.00,,,0.01,Wunderground v.1.15,2013-01-12 07:05:00,
2013-01-12 02:11:00,38.7,37.7,30.19,SSW,192,3.0,3.0,96,0.00,,,0.01,Wunderground v.1.15,2013-01-12 07:11:00,
2013-01-12 02:17:00,38.7,37.7,30.19,SSW,193,2.0,3.0,96,0.00,,,0.01,Wunderground v.1.15,2013-01-12 07:17:00,
2013-01-12 02:22:00,38.6,37.6,30.19,SSW,192,1.0,1.0,96,0.00,,,0.01,Wunderground v.1.15,2013-01-12 07:22:00,
2013-01-12 02:28:00,38.6,37.6,30.19,SSW,192,0.0,1.0,96,0.00,,,0.01,Wunderground v.1.15,2013-01-12 07:28:00,
2013-01-12 02:34:00,38.7,37.7,30.18,South,170,1.0,3.0,96,0.00,,,0.01,Wunderground v.1.15,2013-01-12 07:34:00,
2013-01-12 02:40:00,38.7,37.7,30.19,South,172,2.0,2.0,96,0.00,,,0.01,Wunderground v.1.15,2013-01-12 07:40:00,
2013-01-12 02:45:00,38.7,37.7,30.19,South,185,1.0,4.0,96,0.00,,,0.01,Wunderground v.1.15,2013-01-12 07:45:00,
2013-01-12 02:51:00,38.7,37.7,30.18,South,189,1.0,4.0,96,0.00,,,0.01,Wunderground v.1.15,2013-01-12 07:51:00,
2013-01-12 02:57:00,38.8,37.8,30.18,South,186,1.0,4.0,96,0.00,,,0.01,Wunderground v.1.15,2013-01-12 07:57:00,
2013-01-12 03:03:00,38.9,37.9,30.18,SSW,201,2.0,2.0,96,0.00,,,0.01,Wunderground v.1.15,2013-01-12 08:03:00,
2013-01-12 03:08:00,38.9,37.9,30.18,SSW,200,2.0,3.0,96,0.00,,,0.01,Wunderground v.1.15,2013-01-12 08:08:00,
2013-01-12 03:14:00,38.9,37.9,30.17,SW,216,1.0,3.0,96,0.00,,,0.01,Wunderground v.1.15,2013-01-12 08:14:00,
2013-01-12 03:20:00,38.8,37.8,30.17,SSW,197,1.0,5.0,96,0.00,,,0.01,Wunderground v.1.15,2013-01-12 08:20:00,
2013-01-12 03:26:00,39.1,38.1,30.17,South,171,3.0,7.0,96,0.00,,,0.01,Wunderground v.1.15,2013-01-12 08:26:00,
2013-01-12 03:32:00,39.0,38.0,30.17,SSW,210,2.0,3.0,96,0.00,,,0.01,Wunderground v.1.15,2013-01-12 08:32:00,
2013-01-12 03:38:00,39.1,38.1,30.16,South,180,2.0,4.0,96,0.00,,,0.01,Wunderground v.1.15,2013-01-12 08:38:00,
2013-01-12 03:44:00,39.1,38.1,30.16,South,179,2.0,4.0,96,0.00,,,0.01,Wunderground v.1.15,2013-01-12 08:44:00,
2013-01-12 03:49:00,39.2,38.2,30.16,South,183,2.0,4.0,96,0.00,,,0.01,Wunderground v.1.15,2013-01-12 08:49:00,
2013-01-12 03:55:00,39.3,38.3,30.16,SSW,198,2.0,3.0,96,0.00,,,0.01,Wunderground v.1.15,2013-01-12 08:55:00,
2013-01-12 04:01:00,39.3,38.3,30.16,SSW,207,2.0,4.0,96,0.00,,,0.01,Wunderground v.1.15,2013-01-12 09:01:00,
2013-01-12 04:07:00,39.3,38.3,30.17,SSW,208,1.0,4.0,96,0.00,,,0.01,Wunderground v.1.15,2013-01-12 09:07:00,
2013-01-12 04:12:00,39.4,38.4,30.16,SSW,206,1.0,2.0,96,0.00,,,0.01,Wunderground v.1.15,2013-01-12 09:12:00,
2013-01-12 04:18:00,39.4,38.4,30.16,SSW,208,1.0,4.0,96,0.00,,,0.01,Wunderground v.1.15,2013-01-12 09:18:00,
2013-01-12 04:24:00,39.4,38.4,30.15,SSW,196,2.0,3.0,96,0.00,,,0.01,Wunderground v.1.15,2013-01-12 09:24:00,
2013-01-12 04:30:00,39.4,38.4,30.15,SSW,194,2.0,2.0,96,0.00,,,0.01,Wunderground v.1.15,2013-01-12 09:30:00,
2013-01-12 04:36:00,39.3,38.3,30.15,SSW,196,1.0,3.0,96,0.00,,,0.01,Wunderground v.1.15,2013-01-12 09:36:00,
2013-01-12 04:42:00,39.6,38.6,30.15,SW,220,1.0,3.0,96,0.00,,,0.01,Wunderground v.1.15,2013-01-12 09:42:00,
2013-01-12 04:48:00,39.6,38.6,30.15,SSW,202,1.0,4.0,96,0.00,,,0.01,Wunderground v.1.15,2013-01-12 09:48:00,
2013-01-12 04:53:00,39.5,38.5,30.15,SSW,201,1.0,1.0,96,0.00,,,0.01,Wunderground v.1.15,2013-01-12 09:53:00,
2013-01-12 04:59:00,39.5,38.2,30.15,SSW,212,1.0,2.0,95,0.00,,,0.01,Wunderground v.1.15,2013-01-12 09:59:00,
2013-01-12 05:05:00,39.6,38.6,30.15,SW,228,2.0,3.0,96,0.00,,,0.01,Wunderground v.1.15,2013-01-12 10:05:00,
2013-01-12 05:11:00,39.8,38.5,30.16,SW,235,1.0,2.0,95,0.00,,,0.01,Wunderground v.1.15,2013-01-12 10:11:00,
2013-01-12 05:16:00,39.9,38.9,30.16,SW,235,1.0,2.0,96,0.00,,,0.01,Wunderground v.1.15,2013-01-12 10:16:00,
2013-01-12 05:22:00,39.9,38.9,30.16,SW,235,1.0,1.0,96,0.00,,,0.01,Wunderground v.1.15,2013-01-12 10:22:00,
2013-01-12 05:28:00,40.0,38.7,30.17,SW,235,0.0,1.0,95,0.00,,,0.01,Wunderground v.1.15,2013-01-12 10:28:00,
2013-01-12 05:34:00,39.9,38.6,30.17,SW,235,0.0,1.0,95,0.00,,,0.01,Wunderground v.1.15,2013-01-12 10:34:00,
2013-01-12 05:39:00,39.8,38.5,30.17,SW,235,0.0,2.0,95,0.00,,,0.01,Wunderground v.1.15,2013-01-12 10:39:00,
2013-01-12 05:45:00,39.9,38.6,30.16,SW,235,0.0,1.0,95,0.00,,,0.01,Wunderground v.1.15,2013-01-12 10:45:00,
2013-01-12 05:51:00,39.8,38.5,30.16,SW,235,0.0,1.0,95,0.00,,,0.01,Wunderground v.1.15,2013-01-12 10:51:00,
2013-01-12 05:56:00,39.7,38.4,30.15,South,179,1.0,3.0,95,0.00,,,0.01,Wunderground v.1.15,2013-01-12 10:56:00,
2013-01-12 06:02:00,39.7,38.7,30.15,South,172,2.0,2.0,96,0.00,,,0.02,Wunderground v.1.15,2013-01-12 11:02:00,
2013-01-12 06:08:00,39.6,38.6,30.15,South,172,1.0,2.0,96,0.00,,,0.02,Wunderground v.1.15,2013-01-12 11:08:00,
2013-01-12 06:14:00,39.7,38.7,30.14,South,172,1.0,2.0,96,0.00,,,0.02,Wunderground v.1.15,2013-01-12 11:14:00,
2013-01-12 06:20:00,39.7,38.7,30.15,South,172,1.0,1.0,96,0.00,,,0.02,Wunderground v.1.15,2013-01-12 11:20:00,
2013-01-12 06:26:00,39.8,38.8,30.15,South,172,0.0,1.0,96,0.00,,,0.02,Wunderground v.1.15,2013-01-12 11:26:00,
2013-01-12 06:32:00,39.8,38.8,30.15,South,172,0.0,1.0,96,0.00,,,0.02,Wunderground v.1.15,2013-01-12 11:32:00,
2013-01-12 06:38:00,39.8,38.8,30.16,South,172,0.0,1.0,96,0.00,,,0.02,Wunderground v.1.15,2013-01-12 11:38:00,
2013-01-12 06:44:00,39.9,38.9,30.15,South,172,0.0,1.0,96,0.00,,,0.02,Wunderground v.1.15,2013-01-12 11:44:00,
2013-01-12 06:49:00,39.8,38.8,30.16,South,172,0.0,1.0,96,0.00,,,0.02,Wunderground v.1.15,2013-01-12 11:49:00,
2013-01-12 06:55:00,39.8,38.8,30.15,South,172,0.0,1.0,96,0.00,,,0.02,Wunderground v.1.15,2013-01-12 11:55:00,
2013-01-12 07:01:00,39.8,38.8,30.16,South,172,0.0,1.0,96,0.00,,,0.02,Wunderground v.1.15,2013-01-12 12:01:00,
2013-01-12 07:07:00,39.8,38.8,30.17,South,172,0.0,1.0,96,0.00,,,0.02,Wunderground v.1.15,2013-01-12 12:07:00,
2013-01-12 07:12:00,39.8,38.8,30.16,South,172,0.0,1.0,96,0.00,,,0.02,Wunderground v.1.15,2013-01-12 12:12:00,
2013-01-12 07:18:00,39.9,39.1,30.17,South,172,0.0,1.0,97,0.00,,,0.02,Wunderground v.1.15,2013-01-12 12:18:00,
2013-01-12 07:24:00,39.9,39.1,30.17,South,172,0.0,1.0,97,0.00,,,0.02,Wunderground v.1.15,2013-01-12 12:24:00,
2013-01-12 07:30:00,39.9,39.1,30.18,South,172,0.0,1.0,97,0.00,,,0.02,Wunderground v.1.15,2013-01-12 12:30:00,
2013-01-12 07:36:00,39.7,38.7,30.18,South,172,0.0,1.0,96,0.00,,,0.02,Wunderground v.1.15,2013-01-12 12:36:00,
2013-01-12 07:42:00,39.4,38.4,30.18,South,172,0.0,1.0,96,0.00,,,0.02,Wunderground v.1.15,2013-01-12 12:42:00,
2013-01-12 07:48:00,39.3,38.3,30.18,South,172,0.0,1.0,96,0.00,,,0.02,Wunderground v.1.15,2013-01-12 12:48:00,
2013-01-12 07:53:00,39.1,38.1,30.19,South,172,0.0,1.0,96,0.00,,,0.02,Wunderground v.1.15,2013-01-12 12:53:00,
2013-01-12 07:59:00,39.2,38.2,30.19,South,172,0.0,1.0,96,0.00,,,0.02,Wunderground v.1.15,2013-01-12 12:59:00,
2013-01-12 08:05:00,39.3,38.5,30.18,South,172,0.0,0.0,97,0.00,,,0.02,Wunderground v.1.15,2013-01-12 13:05:00,
2013-01-12 08:11:00,39.4,38.6,30.18,South,172,0.0,0.0,97,0.00,,,0.02,Wunderground v.1.15,2013-01-12 13:11:00,
2013-01-12 08:16:00,39.1,38.1,30.17,South,172,0.0,0.0,96,0.00,,,0.02,Wunderground v.1.15,2013-01-12 13:16:00,
2013-01-12 08:22:00,39.0,38.0,30.17,South,172,0.0,0.0,96,0.00,,,0.02,Wunderground v.1.15,2013-01-12 13:22:00,
2013-01-12 08:28:00,39.2,38.4,30.17,South,172,0.0,0.0,97,0.00,,,0.02,Wunderground v.1.15,2013-01-12 13:28:00,
2013-01-12 08:34:00,39.5,38.7,30.17,South,172,0.0,0.0,97,0.00,,,0.02,Wunderground v.1.15,2013-01-12 13:34:00,
2013-01-12 08:40:00,40.0,39.2,30.18,South,172,0.0,0.0,97,0.00,,,0.02,Wunderground v.1.15,2013-01-12 13:40:00,
2013-01-12 08:46:00,40.4,39.6,30.18,South,172,0.0,0.0,97,0.00,,,0.02,Wunderground v.1.15,2013-01-12 13:46:00,
2013-01-12 08:52:00,40.7,39.9,30.19,South,172,0.0,0.0,97,0.00,,,0.02,Wunderground v.1.15,2013-01-12 13:52:00,
2013-01-12 08:57:00,40.9,40.1,30.19,South,172,0.0,0.0,97,0.00,,,0.02,Wunderground v.1.15,2013-01-12 13:57:00,
2013-01-12 09:03:00,41.0,40.2,30.19,South,172,0.0,0.0,97,0.00,,,0.02,Wunderground v.1.15,2013-01-12 14:03:00,
2013-01-12 09:09:00,41.0,40.2,30.20,South,172,0.0,0.0,97,0.00,,,0.02,Wunderground v.1.15,2013-01-12 14:09:00,
2013-01-12 09:15:00,41.0,40.2,30.19,South,172,0.0,0.0,97,0.00,,,0.02,Wunderground v.1.15,2013-01-12 14:15:00,
2013-01-12 09:20:00,41.0,40.2,30.18,South,172,0.0,0.0,97,0.00,,,0.02,Wunderground v.1.15,2013-01-12 14:20:00,
2013-01-12 09:26:00,40.9,40.1,30.19,South,172,0.0,0.0,97,0.00,,,0.02,Wunderground v.1.15,2013-01-12 14:26:00,
2013-01-12 09:32:00,40.9,40.1,30.20,South,172,0.0,0.0,97,0.00,,,0.02,Wunderground v.1.15,2013-01-12 14:32:00,
2013-01-12 09:38:00,41.1,40.3,30.19,South,172,0.0,1.0,97,0.00,,,0.02,Wunderground v.1.15,2013-01-12 14:38:00,
2013-01-12 09:44:00,41.0,40.2,30.19,South,172,0.0,0.0,97,0.00,,,0.02,Wunderground v.1.15,2013-01-12 14:44:00,
2013-01-12 09:50:00,41.2,40.4,30.19,South,172,0.0,0.0,97,0.00,,,0.02,Wunderground v.1.15,2013-01-12 14:50:00,
2013-01-12 09:56:00,41.4,40.6,30.18,South,172,0.0,0.0,97,0.00,,,0.02,Wunderground v.1.15,2013-01-12 14:56:00,
2013-01-12 10:01:00,41.5,40.7,30.18,South,172,0.0,0.0,97,0.00,,,0.02,Wunderground v.1.15,2013-01-12 15:01:00,
2013-01-12 10:07:00,41.6,40.8,30.18,South,172,0.0,0.0,97,0.00,,,0.02,Wunderground v.1.15,2013-01-12 15:07:00,
2013-01-12 10:13:00,41.8,41.0,30.18,South,172,0.0,0.0,97,0.00,,,0.02,Wunderground v.1.15,2013-01-12 15:13:00,
2013-01-12 10:19:00,41.8,41.0,30.18,South,172,0.0,0.0,97,0.00,,,0.02,Wunderground v.1.15,2013-01-12 15:19:00,
2013-01-12 10:24:00,42.0,41.2,30.18,South,172,0.0,0.0,97,0.00,,,0.02,Wunderground v.1.15,2013-01-12 15:24:00,
2013-01-12 10:30:00,42.2,41.4,30.18,South,172,0.0,0.0,97,0.00,,,0.02,Wunderground v.1.15,2013-01-12 15:30:00,
2013-01-12 10:36:00,42.4,41.6,30.17,South,172,0.0,0.0,97,0.00,,,0.02,Wunderground v.1.15,2013-01-12 15:36:00,
2013-01-12 10:42:00,42.4,41.6,30.17,South,172,0.0,0.0,97,0.00,,,0.02,Wunderground v.1.15,2013-01-12 15:42:00,
2013-01-12 10:48:00,42.5,41.7,30.18,South,172,0.0,1.0,97,0.00,,,0.02,Wunderground v.1.15,2013-01-12 15:48:00,
2013-01-12 10:54:00,42.5,41.4,30.17,South,172,0.0,2.0,96,0.00,,,0.02,Wunderground v.1.15,2013-01-12 15:54:00,
2013-01-12 11:00:00,42.4,41.3,30.17,SSE,155,0.0,1.0,96,0.00,,,0.02,Wunderground v.1.15,2013-01-12 16:00:00,
2013-01-12 11:05:00,42.4,41.3,30.17,SSE,153,0.0,1.0,96,0.00,,,0.02,Wunderground v.1.15,2013-01-12 16:05:00,
2013-01-12 11:11:00,42.5,41.4,30.17,East,93,1.0,1.0,96,0.00,,,0.02,Wunderground v.1.15,2013-01-12 16:11:00,
2013-01-12 11:17:00,42.5,41.4,30.17,East,93,0.0,2.0,96,0.00,,,0.02,Wunderground v.1.15,2013-01-12 16:17:00,
2013-01-12 11:23:00,42.6,41.5,30.16,East,93,0.0,0.0,96,0.00,,,0.02,Wunderground v.1.15,2013-01-12 16:23:00,
2013-01-12 11:28:00,42.6,41.5,30.15,SSE,160,0.0,3.0,96,0.00,,,0.02,Wunderground v.1.15,2013-01-12 16:28:00,
2013-01-12 11:34:00,42.8,41.7,30.15,SSE,161,1.0,2.0,96,0.00,,,0.02,Wunderground v.1.15,2013-01-12 16:34:00,
2013-01-12 11:40:00,42.8,41.7,30.14,South,181,1.0,1.0,96,0.00,,,0.02,Wunderground v.1.15,2013-01-12 16:40:00,
2013-01-12 11:46:00,43.0,41.9,30.14,SSE,162,1.0,2.0,96,0.00,,,0.02,Wunderground v.1.15,2013-01-12 16:46:00,
2013-01-12 11:52:00,43.2,42.1,30.14,SSE,162,0.0,1.0,96,0.00,,,0.02,Wunderground v.1.15,2013-01-12 16:52:00,
2013-01-12 11:58:00,43.1,41.8,30.12,SSE,162,0.0,1.0,95,0.00,,,0.02,Wunderground v.1.15,2013-01-12 16:58:00,
2013-01-12 12:04:00,43.2,41.9,30.13,SSE,162,1.0,3.0,95,0.00,,,0.02,Wunderground v.1.15,2013-01-12 17:04:00,
2013-01-12 12:09:00,43.5,42.2,30.12,South,173,1.0,3.0,95,0.00,,,0.02,Wunderground v.1.15,2013-01-12 17:09:00,
2013-01-12 12:15:00,43.7,42.4,30.12,South,173,1.0,1.0,95,0.00,,,0.02,Wunderground v.1.15,2013-01-12 17:15:00,
2013-01-12 12:21:00,43.8,42.2,30.13,SW,226,1.0,3.0,94,0.00,,,0.02,Wunderground v.1.15,2013-01-12 17:21:00,
2013-01-12 12:27:00,44.0,41.8,30.12,SSE,168,1.0,5.0,92,0.00,,,0.02,Wunderground v.1.15,2013-01-12 17:27:00,
2013-01-12 12:32:00,44.1,41.6,30.12,South,170,3.0,5.0,91,0.00,,,0.02,Wunderground v.1.15,2013-01-12 17:32:00,
2013-01-12 12:38:00,44.2,41.7,30.11,SSW,206,3.0,5.0,91,0.00,,,0.02,Wunderground v.1.15,2013-01-12 17:38:00,
2013-01-12 12:44:00,44.4,41.7,30.12,WSW,240,3.0,6.0,90,0.00,,,0.02,Wunderground v.1.15,2013-01-12 17:44:00,
2013-01-12 12:50:00,44.5,41.7,30.12,WSW,237,3.0,5.0,90,0.00,,,0.02,Wunderground v.1.15,2013-01-12 17:50:00,
2013-01-12 12:56:00,44.3,41.3,30.12,South,185,3.0,5.0,89,0.00,,,0.02,Wunderground v.1.15,2013-01-12 17:56:00,
2013-01-12 13:02:00,44.2,41.7,30.13,SW,217,2.0,2.0,91,0.00,,,0.02,Wunderground v.1.15,2013-01-12 18:02:00,
2013-01-12 13:08:00,44.3,41.8,30.13,SW,231,2.0,3.0,91,0.00,,,0.02,Wunderground v.1.15,2013-01-12 18:08:00,
2013-01-12 13:13:00,44.4,41.7,30.13,SSW,204,2.0,3.0,90,0.00,,,0.02,Wunderground v.1.15,2013-01-12 18:13:00,
2013-01-12 13:19:00,44.3,41.8,30.12,SSW,204,1.0,3.0,91,0.00,,,0.02,Wunderground v.1.15,2013-01-12 18:19:00,
2013-01-12 13:25:00,44.3,41.8,30.13,SSW,204,1.0,2.0,91,0.00,,,0.02,Wunderground v.1.15,2013-01-12 18:25:00,
2013-01-12 13:31:00,44.3,41.8,30.13,SSW,207,1.0,1.0,91,0.00,,,0.02,Wunderground v.1.15,2013-01-12 18:31:00,
2013-01-12 13:36:00,44.2,41.7,30.14,SSW,207,1.0,2.0,91,0.00,,,0.02,Wunderground v.1.15,2013-01-12 18:36:00,
2013-01-12 13:42:00,44.3,41.8,30.14,SSW,207,1.0,1.0,91,0.00,,,0.02,Wunderground v.1.15,2013-01-12 18:42:00,
2013-01-12 13:48:00,44.3,42.1,30.14,SSW,207,0.0,1.0,92,0.00,,,0.02,Wunderground v.1.15,2013-01-12 18:48:00,
2013-01-12 13:54:00,44.1,41.6,30.15,West,274,0.0,1.0,91,0.00,,,0.02,Wunderground v.1.15,2013-01-12 18:54:00,
2013-01-12 14:00:00,44.2,42.0,30.15,WNW,290,0.0,0.0,92,0.00,,,0.02,Wunderground v.1.15,2013-01-12 19:00:00,
2013-01-12 14:06:00,44.3,42.1,30.15,WNW,290,0.0,1.0,92,0.00,,,0.02,Wunderground v.1.15,2013-01-12 19:06:00,
2013-01-12 14:12:00,44.3,42.1,30.15,WNW,289,1.0,1.0,92,0.00,,,0.02,Wunderground v.1.15,2013-01-12 19:12:00,
2013-01-12 14:17:00,44.4,42.2,30.15,WNW,290,0.0,1.0,92,0.00,,,0.02,Wunderground v.1.15,2013-01-12 19:17:00,
2013-01-12 14:23:00,44.5,42.3,30.15,WNW,289,0.0,0.0,92,0.00,,,0.02,Wunderground v.1.15,2013-01-12 19:23:00,
2013-01-12 14:29:00,44.2,41.7,30.14,WNW,290,0.0,1.0,91,0.00,,,0.02,Wunderground v.1.15,2013-01-12 19:29:00,
2013-01-12 14:35:00,44.2,42.0,30.14,WNW,289,0.0,1.0,92,0.00,,,0.02,Wunderground v.1.15,2013-01-12 19:35:00,
2013-01-12 14:40:00,44.1,41.9,30.15,WNW,289,0.0,0.0,92,0.00,,,0.02,Wunderground v.1.15,2013-01-12 19:40:00,
2013-01-12 14:46:00,44.2,42.3,30.15,WNW,290,0.0,0.0,93,0.00,,,0.02,Wunderground v.1.15,2013-01-12 19:46:00,
2013-01-12 14:52:00,44.3,42.1,30.14,WNW,290,0.0,0.0,92,0.00,,,0.02,Wunderground v.1.15,2013-01-12 19:52:00,
2013-01-12 14:58:00,44.1,41.9,30.14,SW,223,0.0,2.0,92,0.00,,,0.02,Wunderground v.1.15,2013-01-12 19:58:00,
2013-01-12 15:04:00,44.2,42.3,30.15,SW,222,0.0,1.0,93,0.00,,,0.02,Wunderground v.1.15,2013-01-12 20:04:00,
2013-01-12 15:10:00,44.3,42.4,30.14,SW,222,0.0,0.0,93,0.00,,,0.02,Wunderground v.1.15,2013-01-12 20:10:00,
2013-01-12 15:16:00,44.3,42.4,30.14,SW,222,0.0,0.0,93,0.00,,,0.02,Wunderground v.1.15,2013-01-12 20:16:00,
2013-01-12 15:21:00,44.3,42.4,30.15,SW,222,0.0,0.0,93,0.00,,,0.02,Wunderground v.1.15,2013-01-12 20:21:00,
2013-01-12 15:27:00,44.4,42.5,30.15,SW,222,0.0,1.0,93,0.00,,,0.02,Wunderground v.1.15,2013-01-12 20:27:00,
2013-01-12 15:33:00,44.4,42.5,30.15,SW,222,0.0,0.0,93,0.00,,,0.02,Wunderground v.1.15,2013-01-12 20:33:00,
2013-01-12 15:39:00,44.4,42.5,30.15,SW,223,0.0,1.0,93,0.00,,,0.02,Wunderground v.1.15,2013-01-12 20:39:00,
2013-01-12 15:44:00,44.3,42.4,30.15,SW,224,0.0,0.0,93,0.00,,,0.02,Wunderground v.1.15,2013-01-12 20:44:00,
2013-01-12 15:50:00,44.2,42.3,30.14,SW,224,0.0,1.0,93,0.00,,,0.02,Wunderground v.1.15,2013-01-12 20:50:00,
2013-01-12 15:56:00,44.0,42.1,30.14,SW,224,1.0,2.0,93,0.00,,,0.02,Wunderground v.1.15,2013-01-12 20:56:00,
2013-01-12 16:02:00,43.8,42.2,30.14,SW,224,1.0,1.0,94,0.00,,,0.02,Wunderground v.1.15,2013-01-12 21:02:00,
2013-01-12 16:08:00,43.9,42.3,30.15,SW,224,0.0,2.0,94,0.00,,,0.02,Wunderground v.1.15,2013-01-12 21:08:00,
2013-01-12 16:14:00,43.9,42.3,30.14,SW,223,0.0,0.0,94,0.00,,,0.02,Wunderground v.1.15,2013-01-12 21:14:00,
2013-01-12 16:20:00,44.0,42.4,30.14,SW,224,0.0,2.0,94,0.00,,,0.02,Wunderground v.1.15,2013-01-12 21:20:00,
2013-01-12 16:25:00,43.9,42.3,30.14,SW,220,1.0,3.0,94,0.00,,,0.02,Wunderground v.1.15,2013-01-12 21:25:00,
2013-01-12 16:31:00,43.9,42.3,30.14,SW,224,3.0,3.0,94,0.00,,,0.02,Wunderground v.1.15,2013-01-12 21:31:00,
2013-01-12 16:37:00,43.8,42.2,30.14,SW,224,2.0,3.0,94,0.00,,,0.02,Wunderground v.1.15,2013-01-12 21:37:00,
2013-01-12 16:43:00,43.6,42.0,30.14,SW,224,1.0,2.0,94,0.00,,,0.02,Wunderground v.1.15,2013-01-12 21:43:00,
2013-01-12 16:48:00,43.6,42.0,30.14,SW,224,1.0,2.0,94,0.00,,,0.02,Wunderground v.1.15,2013-01-12 21:48:00,
2013-01-12 16:54:00,43.5,41.9,30.13,SW,224,0.0,0.0,94,0.00,,,0.02,Wunderground v.1.15,2013-01-12 21:54:00,
2013-01-12 17:00:00,43.4,41.8,30.14,SW,224,0.0,0.0,94,0.00,,,0.02,Wunderground v.1.15,2013-01-12 22:00:00,
2013-01-12 17:06:00,43.3,41.7,30.14,SW,224,0.0,0.0,94,0.00,,,0.02,Wunderground v.1.15,2013-01-12 22:06:00,
2013-01-12 17:12:00,43.2,41.9,30.15,SW,225,0.0,0.0,95,0.00,,,0.02,Wunderground v.1.15,2013-01-12 22:12:00,
2013-01-12 17:18:00,43.3,42.0,30.14,SW,224,0.0,1.0,95,0.00,,,0.02,Wunderground v.1.15,2013-01-12 22:18:00,
2013-01-12 17:24:00,43.2,41.9,30.14,SW,226,0.0,0.0,95,0.00,,,0.02,Wunderground v.1.15,2013-01-12 22:24:00,
2013-01-12 17:29:00,43.2,41.9,30.15,SW,226,0.0,1.0,95,0.00,,,0.02,Wunderground v.1.15,2013-01-12 22:29:00,
2013-01-12 17:35:00,43.2,41.9,30.15,SW,226,0.0,0.0,95,0.00,,,0.02,Wunderground v.1.15,2013-01-12 22:35:00,
2013-01-12 17:41:00,43.2,41.9,30.14,SW,226,0.0,0.0,95,0.00,,,0.02,Wunderground v.1.15,2013-01-12 22:41:00,
2013-01-12 17:47:00,43.1,41.8,30.15,SW,226,0.0,0.0,95,0.00,,,0.02,Wunderground v.1.15,2013-01-12 22:47:00,
2013-01-12 17:53:00,42.9,41.6,30.15,SW,226,0.0,0.0,95,0.00,,,0.02,Wunderground v.1.15,2013-01-12 22:53:00,
2013-01-12 17:59:00,42.7,41.4,30.15,SW,226,0.0,0.0,95,0.00,,,0.02,Wunderground v.1.15,2013-01-12 22:59:00,
2013-01-12 18:05:00,42.7,41.6,30.15,SW,226,0.0,0.0,96,0.00,,,0.02,Wunderground v.1.15,2013-01-12 23:05:00,
2013-01-12 18:11:00,42.7,41.6,30.15,SW,226,0.0,0.0,96,0.00,,,0.02,Wunderground v.1.15,2013-01-12 23:11:00,
2013-01-12 18:16:00,42.7,41.6,30.15,SW,226,0.0,1.0,96,0.00,,,0.02,Wunderground v.1.15,2013-01-12 23:16:00,
2013-01-12 18:22:00,42.7,41.6,30.15,SW,226,0.0,0.0,96,0.00,,,0.02,Wunderground v.1.15,2013-01-12 23:22:00,
2013-01-12 18:28:00,42.5,41.4,30.15,NNW,329,1.0,4.0,96,0.00,,,0.02,Wunderground v.1.15,2013-01-12 23:28:00,
2013-01-12 18:34:00,42.4,41.3,30.15,NNW,329,1.0,1.0,96,0.00,,,0.02,Wunderground v.1.15,2013-01-12 23:34:00,
2013-01-12 18:40:00,42.4,41.3,30.14,NNW,329,0.0,0.0,96,0.00,,,0.02,Wunderground v.1.15,2013-01-12 23:40:00,
2013-01-12 18:46:00,42.2,41.1,30.14,NNW,328,0.0,0.0,96,0.00,,,0.02,Wunderground v.1.15,2013-01-12 23:46:00,
2013-01-12 18:52:00,42.2,41.1,30.13,NNW,328,0.0,0.0,96,0.00,,,0.02,Wunderground v.1.15,2013-01-12 23:52:00,
2013-01-12 18:58:00,42.1,41.0,30.14,NNW,329,0.0,0.0,96,0.00,,,0.02,Wunderground v.1.15,2013-01-12 23:58:00,
2013-01-12 19:03:00,42.1,41.0,30.13,NNW,328,0.0,0.0,96,0.00,,,0.02,Wunderground v.1.15,2013-01-13 00:03:00,
2013-01-12 19:09:00,42.0,40.9,30.14,NNW,329,0.0,0.0,96,0.00,,,0.02,Wunderground v.1.15,2013-01-13 00:09:00,
2013-01-12 19:15:00,42.0,40.9,30.14,NNW,328,0.0,1.0,96,0.00,,,0.03,Wunderground v.1.15,2013-01-13 00:15:00,
2013-01-12 19:21:00,42.0,40.9,30.13,NNW,329,0.0,0.0,96,0.00,,,0.03,Wunderground v.1.15,2013-01-13 00:21:00,
2013-01-12 19:27:00,41.7,40.6,30.13,NNW,328,0.0,0.0,96,0.00,,,0.03,Wunderground v.1.15,2013-01-13 00:27:00,
2013-01-12 19:32:00,41.7,40.6,30.13,NNW,328,0.0,0.0,96,0.00,,,0.03,Wunderground v.1.15,2013-01-13 00:32:00,
2013-01-12 19:38:00,41.7,40.9,30.13,NNW,328,0.0,0.0,97,0.00,,,0.03,Wunderground v.1.15,2013-01-13 00:38:00,
2013-01-12 19:44:00,41.7,40.9,30.13,NNW,329,0.0,0.0,97,0.00,,,0.03,Wunderground v.1.15,2013-01-13 00:44:00,
2013-01-12 19:50:00,41.6,40.5,30.13,NNW,329,0.0,0.0,96,0.00,,,0.03,Wunderground v.1.15,2013-01-13 00:50:00,
2013-01-12 19:55:00,41.6,40.5,30.13,NNW,329,0.0,0.0,96,0.00,,,0.03,Wunderground v.1.15,2013-01-13 00:55:00,
2013-01-12 20:01:00,41.6,40.8,30.13,NNW,329,0.0,0.0,97,0.00,,,0.03,Wunderground v.1.15,2013-01-13 01:01:00,
2013-01-12 20:07:00,41.5,40.7,30.14,NNW,328,0.0,0.0,97,0.00,,,0.03,Wunderground v.1.15,2013-01-13 01:07:00,
2013-01-12 20:13:00,41.3,40.2,30.13,NNW,328,0.0,0.0,96,0.00,,,0.03,Wunderground v.1.15,2013-01-13 01:13:00,
2013-01-12 20:18:00,41.1,40.0,30.14,NNW,329,0.0,0.0,96,0.00,,,0.03,Wunderground v.1.15,2013-01-13 01:18:00,
2013-01-12 20:24:00,41.2,40.4,30.13,NNW,328,0.0,0.0,97,0.00,,,0.03,Wunderground v.1.15,2013-01-13 01:24:00,
2013-01-12 20:30:00,41.4,40.6,30.14,NNW,328,0.0,0.0,97,0.00,,,0.03,Wunderground v.1.15,2013-01-13 01:30:00,
2013-01-12 20:35:00,41.5,40.7,30.13,NNW,329,0.0,0.0,97,0.00,,,0.03,Wunderground v.1.15,2013-01-13 01:35:00,
2013-01-12 20:41:00,41.5,40.7,30.14,NNW,329,0.0,0.0,97,0.00,,,0.03,Wunderground v.1.15,2013-01-13 01:41:00,
2013-01-12 20:47:00,41.2,40.4,30.14,NNW,329,0.0,0.0,97,0.00,,,0.03,Wunderground v.1.15,2013-01-13 01:47:00,
2013-01-12 20:53:00,41.3,40.5,30.14,NNW,329,0.0,0.0,97,0.00,,,0.04,Wunderground v.1.15,2013-01-13 01:53:00,
2013-01-12 20:58:00,41.4,40.6,30.14,NNW,328,0.0,0.0,97,0.00,,,0.04,Wunderground v.1.15,2013-01-13 01:58:00,
2013-01-12 21:04:00,41.5,40.7,30.14,NNW,329,0.0,0.0,97,0.00,,,0.04,Wunderground v.1.15,2013-01-13 02:04:00,
2013-01-12 21:10:00,41.4,40.6,30.13,NNW,329,0.0,0.0,97,0.00,,,0.04,Wunderground v.1.15,2013-01-13 02:10:00,
2013-01-12 21:16:00,40.5,39.4,30.13,NNW,328,0.0,0.0,96,0.00,,,0.04,Wunderground v.1.15,2013-01-13 02:16:00,
2013-01-12 21:22:00,40.3,39.3,30.12,NNW,329,0.0,0.0,96,0.00,,,0.04,Wunderground v.1.15,2013-01-13 02:22:00,
2013-01-12 21:27:00,40.5,39.7,30.13,NNW,329,0.0,0.0,97,0.00,,,0.04,Wunderground v.1.15,2013-01-13 02:27:00,
2013-01-12 21:33:00,40.7,39.9,30.13,NNW,329,0.0,0.0,97,0.00,,,0.04,Wunderground v.1.15,2013-01-13 02:33:00,
2013-01-12 21:39:00,41.0,40.2,30.13,NNW,329,0.0,0.0,97,0.00,,,0.04,Wunderground v.1.15,2013-01-13 02:39:00,
2013-01-12 21:45:00,40.9,40.1,30.13,NNW,328,0.0,0.0,97,0.00,,,0.04,Wunderground v.1.15,2013-01-13 02:45:00,
2013-01-12 21:50:00,40.5,39.7,30.13,NNW,329,0.0,0.0,97,0.00,,,0.04,Wunderground v.1.15,2013-01-13 02:50:00,
2013-01-12 21:56:00,40.7,39.9,30.13,NNW,328,0.0,0.0,97,0.00,,,0.04,Wunderground v.1.15,2013-01-13 02:56:00,
2013-01-12 22:02:00,41.2,40.7,30.13,NNW,329,0.0,0.0,98,0.00,,,0.04,Wunderground v.1.15,2013-01-13 03:02:00,
2013-01-12 22:08:00,41.6,41.1,30.12,NNW,328,0.0,1.0,98,0.00,,,0.04,Wunderground v.1.15,2013-01-13 03:08:00,
2013-01-12 22:13:00,41.6,41.1,30.12,NNW,328,0.0,1.0,98,0.00,,,0.04,Wunderground v.1.15,2013-01-13 03:13:00,
2013-01-12 22:19:00,41.4,40.6,30.12,NNW,328,0.0,1.0,97,0.00,,,0.04,Wunderground v.1.15,2013-01-13 03:19:00,
2013-01-12 22:25:00,41.3,40.5,30.12,NNW,328,0.0,0.0,97,0.00,,,0.04,Wunderground v.1.15,2013-01-13 03:25:00,
2013-01-12 22:31:00,41.4,40.6,30.12,NNW,328,0.0,0.0,97,0.00,,,0.05,Wunderground v.1.15,2013-01-13 03:31:00,
2013-01-12 22:37:00,41.5,40.7,30.11,NNW,328,0.0,0.0,97,0.00,,,0.05,Wunderground v.1.15,2013-01-13 03:37:00,
2013-01-12 22:43:00,41.5,41.0,30.11,NNW,328,0.0,0.0,98,0.00,,,0.05,Wunderground v.1.15,2013-01-13 03:43:00,
2013-01-12 22:49:00,41.4,40.6,30.11,NNW,328,0.0,0.0,97,0.00,,,0.05,Wunderground v.1.15,2013-01-13 03:49:00,
2013-01-12 22:54:00,41.1,40.3,30.11,NNW,328,0.0,0.0,97,0.00,,,0.05,Wunderground v.1.15,2013-01-13 03:54:00,
2013-01-12 23:00:00,41.1,40.3,30.11,NNW,328,0.0,0.0,97,0.00,,,0.05,Wunderground v.1.15,2013-01-13 04:00:00,
2013-01-12 23:06:00,41.5,41.0,30.12,NNW,328,0.0,0.0,98,0.00,,,0.05,Wunderground v.1.15,2013-01-13 04:06:00,
2013-01-12 23:12:00,41.6,41.1,30.12,NNW,328,0.0,0.0,98,0.00,,,0.05,Wunderground v.1.15,2013-01-13 04:12:00,
2013-01-12 23:17:00,41.9,41.4,30.13,NNW,328,0.0,1.0,98,0.00,,,0.05,Wunderground v.1.15,2013-01-13 04:17:00,
2013-01-12 23:23:00,41.9,41.4,30.13,NNW,328,0.0,0.0,98,0.00,,,0.05,Wunderground v.1.15,2013-01-13 04:23:00,
2013-01-12 23:29:00,41.8,41.3,30.12,WNW,301,0.0,1.0,98,0.00,,,0.05,Wunderground v.1.15,2013-01-13 04:29:00,
2013-01-12 23:35:00,41.3,40.5,30.13,WNW,301,0.0,0.0,97,0.00,,,0.05,Wunderground v.1.15,2013-01-13 04:35:00,
2013-01-12 23:40:00,41.4,40.6,30.13,WNW,301,0.0,0.0,97,0.00,,,0.06,Wunderground v.1.15,2013-01-13 04:40:00,
2013-01-12 23:46:00,41.5,41.0,30.12,WNW,301,0.0,1.0,98,0.00,,,0.06,Wunderground v.1.15,2013-01-13 04:46:00,
2013-01-12 23:52:00,41.3,40.5,30.12,WNW,301,0.0,0.0,97,0.00,,,0.06,Wunderground v.1.15,2013-01-13 04:52:00,
2013-01-12 23:58:00,41.2,40.4,30.12,WNW,301,0.0,2.0,97,0.00,,,0.06,Wunderground v.1.15,2013-01-13 04:58:00,